Time;durP1;ratioP1;P1;durP2;ratioP2;P2;SDS_P1;SDS_P2;PMS_P1;PMS_P2;Temp;Humidity;BMP_temperature;BMP_pressure;BME280_temperature;BME280_humidity;BME280_pressure;Samples;Min_cycle;Max_cycle;Signal;HPM_P1;HPM_P2
2022/05/10 00:01:37;;;;;;;34.65;26.80;;;;;;;14.24;75.21;101955.94;5025503;28;20030;-70
2022/05/10 00:04:05;;;;;;;36.60;28.23;;;;;;;14.24;74.93;101957.81;5025932;28;20041;-71
2022/05/10 00:06:42;;;;;;;43.17;29.77;;;;;;;14.22;74.27;101948.91;5024096;28;20040;-70
2022/05/10 00:09:08;;;;;;;43.40;30.50;;;;;;;14.14;74.97;101950.06;5026343;28;20032;-70
2022/05/10 00:11:35;;;;;;;41.88;29.42;;;;;;;14.10;75.26;101950.75;5025884;28;20026;-70
2022/05/10 00:14:00;;;;;;;41.50;29.05;;;;;;;14.09;75.39;101943.50;5025676;28;20029;-70
2022/05/10 00:16:25;;;;;;;47.03;30.80;;;;;;;14.03;75.34;101942.50;5025056;28;20362;-70
2022/05/10 00:18:51;;;;;;;41.92;30.25;;;;;;;13.92;76.06;101940.50;5023318;28;20060;-71
2022/05/10 00:21:20;;;;;;;45.25;30.25;;;;;;;13.89;75.95;101936.28;5025233;28;20380;-69
2022/05/10 00:23:46;;;;;;;48.42;32.33;;;;;;;13.86;75.99;101939.47;5025682;28;20139;-70
2022/05/10 00:26:11;;;;;;;44.30;31.10;;;;;;;13.84;76.28;101936.13;5025415;28;20041;-70
2022/05/10 00:28:37;;;;;;;48.63;31.20;;;;;;;13.80;76.15;101936.78;5025773;28;20332;-70
2022/05/10 00:31:02;;;;;;;44.25;30.45;;;;;;;13.81;76.10;101933.78;5025613;28;20071;-70
2022/05/10 00:33:30;;;;;;;42.33;31.45;;;;;;;13.80;76.04;101934.03;5017485;28;20404;-69
2022/05/10 00:35:56;;;;;;;41.92;30.83;;;;;;;13.75;76.29;101934.69;5005504;28;20105;-70
2022/05/10 00:38:28;;;;;;;52.50;32.83;;;;;;;13.74;76.58;101931.09;5012353;28;20372;-69
2022/05/10 00:40:54;;;;;;;46.55;31.98;;;;;;;13.72;76.38;101924.94;5025252;28;20408;-70
2022/05/10 00:43:36;;;;;;;45.92;32.88;;;;;;;13.73;76.53;101920.25;5025090;28;20033;-70
2022/05/10 00:46:14;;;;;;;49.42;33.22;;;;;;;13.75;76.17;101918.13;5025180;28;20109;-70
2022/05/10 00:48:55;;;;;;;47.40;34.45;;;;;;;13.75;76.16;101926.41;5024385;28;20053;-70
2022/05/10 00:51:36;;;;;;;50.67;34.97;;;;;;;13.68;76.26;101922.84;5029923;28;20017;-70
2022/05/10 00:54:08;;;;;;;53.78;35.38;;;;;;;13.58;76.89;101917.84;5045085;28;20032;-70
2022/05/10 00:56:46;;;;;;;51.75;36.20;;;;;;;13.53;76.95;101917.66;5028232;28;20443;-70
2022/05/10 00:59:23;;;;;;;50.97;35.00;;;;;;;13.54;77.24;101913.84;5024570;28;20048;-70
2022/05/10 01:01:52;;;;;;;50.53;34.78;;;;;;;13.47;77.54;101910.28;5024133;28;20033;-69
2022/05/10 01:04:26;;;;;;;52.25;34.65;;;;;;;13.42;77.92;101913.72;5023069;28;20181;-70
2022/05/10 01:07:07;;;;;;;46.67;34.25;;;;;;;13.40;77.35;101893.78;5024564;28;20030;-70
2022/05/10 01:09:45;;;;;;;51.42;36.78;;;;;;;13.34;77.76;101900.22;5034349;22;20021;-70
2022/05/10 01:12:20;;;;;;;50.25;38.38;;;;;;;13.31;78.41;101895.13;5036918;28;20483;-69
2022/05/10 01:15:05;;;;;;;55.42;37.33;;;;;;;13.28;78.52;101900.22;5031921;28;20128;-69
2022/05/10 01:17:31;;;;;;;52.05;37.17;;;;;;;13.24;78.59;101895.19;5043675;28;20029;-70
2022/05/10 01:19:56;;;;;;;51.95;37.33;;;;;;;13.23;78.30;101896.25;5040638;28;20424;-69
2022/05/10 01:22:44;;;;;;;56.03;37.63;;;;;;;13.26;78.49;101891.34;5043414;28;20486;-69
2022/05/10 01:25:36;;;;;;;58.33;38.70;;;;;;;13.23;78.90;101893.50;5059419;28;20505;-68
2022/05/10 01:28:23;;;;;;;58.22;39.00;;;;;;;13.21;78.30;101894.72;5025660;28;20030;-69
2022/05/10 01:30:49;;;;;;;57.88;39.65;;;;;;;13.15;78.96;101887.34;5043003;28;20025;-69
2022/05/10 01:33:30;;;;;;;62.50;40.35;;;;;;;13.13;79.30;101879.31;5043132;28;20116;-69
2022/05/10 01:36:10;;;;;;;54.58;39.03;;;;;;;13.12;79.04;101885.88;5043733;28;20025;-70
2022/05/10 01:38:51;;;;;;;60.15;40.53;;;;;;;13.08;79.34;101876.38;5044389;28;20021;-69
2022/05/10 01:41:24;;;;;;;57.08;40.42;;;;;;;13.02;79.30;101868.97;5043019;28;20044;-69
2022/05/10 01:44:12;;;;;;;53.42;39.58;;;;;;;12.99;79.10;101869.44;5041677;28;20037;-68
2022/05/10 01:46:37;;;;;;;;;;;;;;;13.11;76.16;101866.78;5043367;28;20080;-69
2022/05/10 01:49:23;;;;;;;61.47;41.53;;;;;;;12.98;79.17;101865.81;5041148;28;19955;-69
2022/05/10 01:51:58;;;;;;;61.45;40.20;;;;;;;12.87;80.18;101855.47;5042758;28;20493;-69
2022/05/10 01:54:56;;;;;;;65.95;41.65;;;;;;;12.83;80.02;101858.94;5043502;28;20541;-70
2022/05/10 01:57:21;;;;;;;68.82;46.20;;;;;;;12.84;79.70;101855.09;5042457;28;20530;-69
2022/05/10 01:59:53;;;;;;;68.85;43.97;;;;;;;12.77;80.28;101857.03;5042715;28;20044;-69
2022/05/10 02:02:23;;;;;;;74.93;46.10;;;;;;;12.71;80.49;101851.34;5042421;28;20027;-69
2022/05/10 02:04:53;;;;;;;73.90;49.10;;;;;;;12.66;80.84;101853.91;5043006;28;20123;-68
2022/05/10 02:07:21;;;;;;;78.95;49.80;;;;;;;12.65;81.21;101848.63;5042663;28;20112;-68
2022/05/10 02:09:56;;;;;;;77.50;50.08;;;;;;;12.64;81.43;101846.94;5043454;28;20120;-69
2022/05/10 02:12:42;;;;;;;79.40;52.75;;;;;;;12.63;81.42;101848.00;5042364;28;20032;-69
2022/05/10 02:15:25;;;;;;;79.68;54.28;;;;;;;12.63;81.57;101848.84;5043278;28;20025;-68
2022/05/10 02:18:04;;;;;;;79.10;54.00;;;;;;;12.62;81.62;101840.78;5041434;28;20036;-69
2022/05/10 02:20:37;;;;;;;77.47;52.95;;;;;;;12.61;82.24;101839.09;5027485;28;20071;-68
2022/05/10 02:23:09;;;;;;;80.40;52.92;;;;;;;12.60;82.25;101829.16;5040568;28;20024;-68
2022/05/10 02:25:41;;;;;;;77.18;51.42;;;;;;;12.59;82.57;101831.06;5042208;28;20029;-68
2022/05/10 02:28:43;;;;;;;72.30;49.25;;;;;;;12.68;82.16;101824.22;5029221;28;20036;-69
2022/05/10 02:31:16;;;;;;;83.57;51.00;;;;;;;12.67;82.23;101827.19;5041359;28;20036;-69
2022/05/10 02:33:43;;;;;;;71.13;49.92;;;;;;;12.67;81.95;101816.16;5042076;28;20454;-70
2022/05/10 02:36:08;;;;;;;82.10;51.78;;;;;;;12.64;81.94;101811.09;5042272;28;20075;-68
2022/05/10 02:38:37;;;;;;;70.47;50.55;;;;;;;12.65;82.55;101812.78;5043137;28;20040;-69
2022/05/10 02:41:16;;;;;;;80.93;51.30;;;;;;;12.67;82.00;101817.03;5042292;28;20033;-69
2022/05/10 02:43:51;;;;;;;80.72;50.63;;;;;;;12.67;81.90;101807.88;5042872;28;20533;-70
2022/05/10 02:46:17;;;;;;;80.75;51.63;;;;;;;12.64;81.89;101816.63;5040882;28;20041;-70
2022/05/10 02:48:45;;;;;;;78.68;51.15;;;;;;;12.57;81.93;101802.88;5028368;28;20116;-70
2022/05/10 02:51:10;;;;;;;85.60;51.63;;;;;;;12.58;82.03;101806.50;5042253;28;20025;-69
2022/05/10 02:53:36;;;;;;;84.70;50.03;;;;;;;12.60;82.54;101802.44;5043001;28;20021;-70
2022/05/10 02:56:05;;;;;;;78.35;50.03;;;;;;;12.58;82.28;101800.97;5042779;28;20104;-69
2022/05/10 02:58:40;;;;;;;80.93;49.90;;;;;;;12.61;82.53;101801.34;5042458;28;20032;-70
2022/05/10 03:01:14;;;;;;;71.05;48.42;;;;;;;12.60;82.05;101793.31;5042343;28;20032;-65
2022/05/10 03:03:40;;;;;;;80.25;49.42;;;;;;;12.59;82.33;101791.63;5042276;28;20037;-70
2022/05/10 03:06:06;;;;;;;79.85;48.65;;;;;;;12.62;82.42;101793.94;5043061;28;20109;-69
2022/05/10 03:08:32;;;;;;;81.47;50.45;;;;;;;12.57;81.79;101791.00;5042547;28;20180;-69
2022/05/10 03:10:58;;;;;;;72.68;48.60;;;;;;;12.60;83.15;101788.66;5042213;28;20056;-69
2022/05/10 03:13:23;;;;;;;80.07;51.90;;;;;;;12.62;82.61;101791.16;5040102;28;20028;-69
2022/05/10 03:15:49;;;;;;;83.78;50.40;;;;;;;12.63;83.01;101790.97;5042078;28;20025;-69
2022/05/10 03:18:14;;;;;;;85.80;52.30;;;;;;;12.64;83.30;101783.56;5041764;28;20029;-69
2022/05/10 03:20:39;;;;;;;80.50;50.75;;;;;;;12.68;83.04;101782.88;5022854;28;20025;-70
2022/05/10 03:23:05;;;;;;;86.00;51.35;;;;;;;12.69;83.45;101780.97;5022330;28;20032;-70
2022/05/10 03:25:31;;;;;;;91.13;52.60;;;;;;;12.71;83.35;101782.44;5022514;28;20117;-69
2022/05/10 03:27:59;;;;;;;81.40;48.90;;;;;;;12.72;82.69;101778.63;5025517;28;20021;-69
2022/05/10 03:30:27;;;;;;;86.18;50.78;;;;;;;12.78;83.26;101776.03;5041194;28;20029;-69
2022/05/10 03:32:53;;;;;;;79.35;50.83;;;;;;;12.80;82.74;101776.66;5042025;28;20167;-69
2022/05/10 03:35:20;;;;;;;78.90;47.70;;;;;;;12.80;83.00;101771.97;5043119;28;20154;-70
2022/05/10 03:37:45;;;;;;;80.03;49.45;;;;;;;12.87;82.15;101767.25;5045836;28;20519;-70
2022/05/10 03:40:11;;;;;;;75.35;47.78;;;;;;;12.83;83.17;101771.56;5045084;28;20049;-69
2022/05/10 03:42:44;;;;;;;78.70;48.78;;;;;;;12.82;82.86;101767.06;5044226;28;20163;-69
2022/05/10 03:45:11;;;;;;;73.63;47.95;;;;;;;12.82;82.28;101769.84;5045663;28;20562;-70
2022/05/10 03:47:37;;;;;;;75.80;49.08;;;;;;;12.83;82.34;101766.03;5057465;28;20021;-70
2022/05/10 03:50:04;;;;;;;68.68;46.25;;;;;;;12.81;83.57;101762.63;5066231;28;20035;-69
2022/05/10 03:52:29;;;;;;;73.57;47.40;;;;;;;12.84;82.39;101758.59;5064126;28;20272;-69
2022/05/10 03:54:54;;;;;;;67.30;45.70;;;;;;;12.81;82.26;101754.38;5065470;28;20535;-70
2022/05/10 03:57:19;;;;;;;67.35;44.13;;;;;;;12.89;82.86;101759.63;5065803;28;20097;-70
2022/05/10 03:59:45;;;;;;;65.90;44.22;;;;;;;12.88;82.03;101744.16;5053605;28;20040;-70
2022/05/10 04:02:12;;;;;;;60.53;43.72;;;;;;;12.93;81.88;101758.09;5043937;28;20053;-71
2022/05/10 04:04:38;;;;;;;62.75;43.08;;;;;;;12.91;81.51;101757.47;5046062;28;20364;-70
2022/05/10 04:07:04;;;;;;;62.45;41.53;;;;;;;12.95;81.34;101752.38;5044595;28;20032;-70
2022/05/10 04:09:29;;;;;;;59.38;39.97;;;;;;;12.94;81.53;101751.53;5045381;28;20029;-70
2022/05/10 04:11:54;;;;;;;58.50;40.25;;;;;;;12.96;81.46;101749.38;5045354;28;20053;-70
2022/05/10 04:14:20;;;;;;;57.78;40.97;;;;;;;12.99;81.66;101748.94;5044728;28;20041;-69
2022/05/10 04:16:45;;;;;;;55.33;37.92;;;;;;;13.02;81.72;101749.53;5044127;28;20025;-69
2022/05/10 04:19:10;;;;;;;50.28;37.08;;;;;;;13.01;82.05;101751.47;5042195;28;20029;-69
2022/05/10 04:21:35;;;;;;;51.42;38.78;;;;;;;13.04;82.58;101748.25;5045365;28;20379;-69
2022/05/10 04:24:01;;;;;;;47.92;36.38;;;;;;;13.06;82.49;101750.78;5044998;28;20112;-70
2022/05/10 04:26:26;;;;;;;49.00;37.22;;;;;;;13.04;82.29;101747.41;5044951;28;20396;-69
2022/05/10 04:28:54;;;;;;;53.72;37.08;;;;;;;13.05;82.52;101747.19;5044839;28;20090;-70
2022/05/10 04:31:19;;;;;;;45.85;35.63;;;;;;;13.06;82.06;101742.50;5040545;28;20021;-69
2022/05/10 04:33:44;;;;;;;45.00;34.92;;;;;;;13.06;82.47;101737.00;5043297;28;20094;-69
2022/05/10 04:36:10;;;;;;;46.20;35.85;;;;;;;13.07;82.71;101738.69;5044736;28;20502;-69
2022/05/10 04:38:35;;;;;;;46.00;33.60;;;;;;;13.10;82.70;101735.47;5044635;28;20025;-69
2022/05/10 04:43:44;;;;;;;44.53;34.08;;;;;;;13.22;81.96;101736.44;5043720;28;20048;-70
2022/05/10 04:46:10;;;;;;;41.28;31.25;;;;;;;13.30;80.97;101733.41;5041827;28;20033;-70
2022/05/10 04:48:36;;;;;;;38.45;30.27;;;;;;;13.38;80.54;101723.97;5045344;28;20503;-69
2022/05/10 04:51:02;;;;;;;39.75;29.50;;;;;;;13.46;79.95;101735.56;5044586;28;20029;-70
2022/05/10 04:53:27;;;;;;;40.15;29.90;;;;;;;13.55;78.93;101729.78;5041668;28;20040;-69
2022/05/10 04:55:53;;;;;;;40.75;28.83;;;;;;;13.61;78.13;101729.69;5044292;28;20392;-70
2022/05/10 04:58:18;;;;;;;40.20;28.02;;;;;;;13.71;77.48;101727.25;5044494;28;20047;-70
2022/05/10 05:00:44;;;;;;;38.95;27.45;;;;;;;13.83;77.27;101737.50;5044259;28;20059;-70
2022/05/10 05:03:09;;;;;;;38.33;27.63;;;;;;;13.92;76.07;101730.59;5031818;28;20642;-62
2022/05/10 05:05:34;;;;;;;38.90;29.25;;;;;;;13.99;76.18;101723.94;5043226;28;20102;-69
2022/05/10 05:08:00;;;;;;;36.47;27.85;;;;;;;14.09;76.25;101734.44;5043760;28;20106;-70
2022/05/10 05:10:25;;;;;;;38.92;27.42;;;;;;;14.19;75.15;101728.34;5043232;28;20107;-70
2022/05/10 05:12:51;;;;;;;33.55;26.02;;;;;;;14.29;74.48;101734.13;5045176;28;20470;-71
2022/05/10 05:15:18;;;;;;;38.45;25.75;;;;;;;14.38;73.63;101734.66;5044303;28;20035;-70
2022/05/10 05:17:43;;;;;;;40.00;26.25;;;;;;;14.42;73.79;101722.91;5045395;28;20021;-71
2022/05/10 05:20:10;;;;;;;38.30;26.73;;;;;;;14.49;73.90;101731.13;5045165;28;20348;-70
2022/05/10 05:22:35;;;;;;;39.65;26.75;;;;;;;14.57;73.10;101732.72;5036982;28;20031;-71
2022/05/10 05:25:01;;;;;;;42.22;26.45;;;;;;;14.66;73.15;101732.16;5045303;28;20021;-70
2022/05/10 05:27:26;;;;;;;46.70;26.35;;;;;;;14.70;73.67;101733.38;5045172;28;20086;-71
2022/05/10 05:29:52;;;;;;;48.92;26.33;;;;;;;14.77;72.49;101736.03;5045351;28;20029;-71
2022/05/10 05:32:22;;;;;;;45.55;25.83;;;;;;;14.83;72.86;101737.00;5044673;28;20049;-71
2022/05/10 05:34:47;;;;;;;47.22;25.88;;;;;;;14.88;72.52;101734.38;5042971;28;20426;-71
2022/05/10 05:39:57;;;;;;;40.47;24.70;;;;;;;15.01;72.92;101736.94;5027117;28;20068;-72
2022/05/10 05:42:22;;;;;;;37.30;25.42;;;;;;;15.07;71.79;101732.34;5044205;28;20423;-71
2022/05/10 05:44:47;;;;;;;35.35;24.52;;;;;;;15.15;71.68;101740.28;5044449;28;20116;-71
2022/05/10 05:47:13;;;;;;;37.97;25.55;;;;;;;15.23;71.72;101729.72;5033787;28;20365;-70
2022/05/10 05:49:38;;;;;;;37.08;26.15;;;;;;;15.29;70.73;101733.44;5045297;28;20044;-71
2022/05/10 05:52:04;;;;;;;36.28;24.80;;;;;;;15.36;71.59;101730.53;5043635;28;20035;-71
2022/05/10 05:54:31;;;;;;;38.17;24.58;;;;;;;15.42;70.89;101724.91;5040589;28;20086;-71
2022/05/10 05:57:06;;;;;;;34.53;25.20;;;;;;;15.52;70.97;101727.91;5044255;28;20104;-71
2022/05/10 05:59:33;;;;;;;34.58;22.95;;;;;;;15.65;70.24;101724.06;5045561;28;20028;-71
2022/05/10 06:01:58;;;;;;;32.67;24.30;;;;;;;15.76;71.37;101719.56;5039090;28;20033;-71
2022/05/10 06:04:24;;;;;;;33.75;24.23;;;;;;;15.85;70.56;101706.19;5045101;28;20071;-72
2022/05/10 06:06:49;;;;;;;31.85;24.27;;;;;;;15.96;70.88;101702.53;5044416;28;20028;-71
2022/05/10 06:09:15;;;;;;;29.60;24.55;;;;;;;16.05;70.08;101703.84;5042952;28;20025;-71
2022/05/10 06:11:40;;;;;;;28.90;23.67;;;;;;;16.17;69.29;101707.44;5041615;28;20071;-71
2022/05/10 06:14:06;;;;;;;29.02;23.10;;;;;;;16.27;68.85;101707.63;5045008;28;20029;-71
2022/05/10 06:16:31;;;;;;;31.35;23.83;;;;;;;16.38;68.16;101710.59;5054330;28;20400;-71
2022/05/10 06:18:57;;;;;;;31.77;23.88;;;;;;;16.51;68.25;101704.72;5053123;28;20029;-71
2022/05/10 06:21:22;;;;;;;30.73;24.08;;;;;;;16.66;67.19;101713.31;5041083;28;20033;-71
2022/05/10 06:23:47;;;;;;;27.75;23.75;;;;;;;16.81;66.28;101705.28;5043560;28;20029;-69
2022/05/10 06:26:13;;;;;;;30.30;24.05;;;;;;;16.92;67.10;101706.31;5041451;28;20283;-71
2022/05/10 06:28:38;;;;;;;31.50;23.73;;;;;;;17.05;65.98;101708.75;5044779;28;20033;-71
2022/05/10 06:31:08;;;;;;;31.48;23.95;;;;;;;17.15;65.71;101704.47;5044492;28;20701;-70
2022/05/10 06:33:34;;;;;;;29.40;23.95;;;;;;;17.26;66.04;101700.75;5042903;28;20124;-69
2022/05/10 06:35:59;;;;;;;31.75;23.70;;;;;;;17.37;65.13;101695.06;5044737;28;20033;-68
2022/05/10 06:38:28;;;;;;;27.13;20.65;;;;;;;17.46;64.83;101695.47;5044410;28;20542;-70
2022/05/10 06:41:01;;;;;;;27.08;20.98;;;;;;;17.58;64.43;101693.41;5044949;28;20025;-70
2022/05/10 06:43:27;;;;;;;24.40;19.50;;;;;;;17.71;65.43;101697.78;5044535;28;20103;-70
2022/05/10 06:45:54;;;;;;;22.90;18.25;;;;;;;17.86;64.03;101697.16;5041299;28;20463;-71
2022/05/10 06:48:19;;;;;;;19.63;17.30;;;;;;;18.02;63.26;101693.47;5039116;28;20024;-70
2022/05/10 06:50:45;;;;;;;21.73;16.77;;;;;;;18.19;63.31;101689.75;5034131;28;20028;-70
2022/05/10 06:53:12;;;;;;;22.30;16.35;;;;;;;18.36;62.72;101688.56;5041183;28;20107;-69
2022/05/10 06:55:38;;;;;;;20.52;15.27;;;;;;;18.49;61.31;101680.88;5042196;28;20112;-71
2022/05/10 06:58:04;;;;;;;21.08;15.48;;;;;;;18.69;61.92;101678.31;5043192;28;20021;-68
2022/05/10 07:00:32;;;;;;;19.30;14.93;;;;;;;18.91;60.75;101681.03;5042032;28;20033;-70
2022/05/10 07:02:57;;;;;;;22.20;14.43;;;;;;;19.03;59.87;101683.63;5042630;28;20036;-72
2022/05/10 07:05:23;;;;;;;18.02;14.32;;;;;;;19.04;59.16;101683.34;5042080;28;20029;-71
2022/05/10 07:07:48;;;;;;;18.45;14.68;;;;;;;19.14;58.74;101683.41;5041511;28;20025;-71
2022/05/10 07:10:17;;;;;;;17.27;13.45;;;;;;;19.24;59.11;101670.69;5041812;28;20067;-70
2022/05/10 07:12:44;;;;;;;18.23;14.90;;;;;;;19.37;58.32;101673.00;5043132;28;20033;-70
2022/05/10 07:15:21;;;;;;;18.30;14.02;;;;;;;19.49;58.84;101668.03;5034726;28;20076;-66
2022/05/10 07:17:46;;;;;;;17.42;13.07;;;;;;;19.65;57.69;101672.59;5038218;28;20074;-71
2022/05/10 07:20:13;;;;;;;17.95;13.40;;;;;;;19.83;56.90;101664.91;5040349;28;20108;-71
2022/05/10 07:22:39;;;;;;;19.80;12.90;;;;;;;19.92;57.23;101666.03;5038658;28;20025;-71
2022/05/10 07:25:05;;;;;;;20.38;13.40;;;;;;;20.03;57.22;101650.19;5031108;28;20059;-71
2022/05/10 07:27:30;;;;;;;15.68;12.30;;;;;;;20.20;55.91;101651.59;5029742;28;20034;-71
2022/05/10 07:29:56;;;;;;;16.85;12.48;;;;;;;20.37;54.65;101651.34;5053567;28;20050;-70
2022/05/10 07:32:22;;;;;;;15.02;11.48;;;;;;;20.52;54.88;101650.56;5037286;28;20032;-70
2022/05/10 07:34:47;;;;;;;18.02;12.23;;;;;;;20.67;54.03;101649.75;5041576;28;20036;-71
2022/05/10 07:37:13;;;;;;;15.50;12.40;;;;;;;20.72;53.82;101652.53;5042241;28;20036;-71
2022/05/10 07:39:38;;;;;;;14.50;12.05;;;;;;;20.83;53.03;101656.16;5042430;28;20116;-71
2022/05/10 07:42:04;;;;;;;15.38;11.63;;;;;;;20.82;54.12;101649.72;5031414;28;20029;-71
2022/05/10 07:44:33;;;;;;;16.67;11.27;;;;;;;20.83;54.00;101647.78;5041873;28;20353;-67
2022/05/10 07:46:59;;;;;;;15.40;11.43;;;;;;;20.94;53.71;101649.47;5041051;28;20102;-76
2022/05/10 07:49:24;;;;;;;18.98;11.85;;;;;;;20.94;53.71;101653.09;5039658;28;20446;-72
2022/05/10 07:51:49;;;;;;;15.77;11.90;;;;;;;20.91;52.57;101638.84;5038822;28;20044;-72
2022/05/10 07:54:14;;;;;;;15.18;11.30;;;;;;;20.88;53.25;101642.19;5040778;28;20436;-72
2022/05/10 07:56:41;;;;;;;16.17;10.80;;;;;;;20.92;52.65;101641.34;5036729;28;20043;-71
2022/05/10 07:59:07;;;;;;;15.82;10.90;;;;;;;20.93;52.61;101647.78;5040984;28;20299;-72
2022/05/10 08:01:33;;;;;;;19.88;11.45;;;;;;;21.01;53.31;101640.78;5037346;28;20021;-71
2022/05/10 08:03:58;;;;;;;14.65;10.52;;;;;;;21.07;52.33;101643.28;5040093;28;20386;-72
2022/05/10 08:06:25;;;;;;;17.13;10.68;;;;;;;21.04;51.98;101634.66;5040486;28;20475;-70
2022/05/10 08:08:51;;;;;;;16.58;10.20;;;;;;;21.05;52.23;101627.94;5041918;28;20067;-73
2022/05/10 08:11:16;;;;;;;18.75;10.45;;;;;;;21.10;51.45;101639.94;5040569;28;20076;-72
2022/05/10 08:13:42;;;;;;;16.38;10.73;;;;;;;21.15;52.11;101645.53;5040716;28;20029;-72
2022/05/10 08:16:08;;;;;;;17.65;10.57;;;;;;;21.22;52.17;101648.84;5040836;28;20025;-73
2022/05/10 08:18:35;;;;;;;20.15;10.13;;;;;;;21.23;51.53;101641.28;5040172;28;20025;-73
2022/05/10 08:21:00;;;;;;;14.45;10.07;;;;;;;21.21;51.83;101635.16;5033518;28;20082;-72
2022/05/10 08:23:29;;;;;;;15.68;9.65;;;;;;;21.20;52.07;101637.13;5039704;28;20391;-73
2022/05/10 08:25:56;;;;;;;18.52;9.80;;;;;;;21.24;51.62;101643.00;5044459;28;20033;-72
2022/05/10 08:28:23;;;;;;;12.82;9.57;;;;;;;21.24;51.91;101646.63;5044542;28;20029;-73
2022/05/10 08:30:49;;;;;;;15.23;9.60;;;;;;;21.19;51.36;101640.22;5043876;28;20091;-73
2022/05/10 08:33:26;;;;;;;13.48;9.95;;;;;;;21.12;51.84;101617.31;5044024;28;20025;-72
2022/05/10 08:35:54;;;;;;;16.60;10.40;;;;;;;21.03;52.09;101631.00;5042632;28;20118;-72
2022/05/10 08:38:19;;;;;;;16.50;9.60;;;;;;;21.02;52.55;101628.50;5043205;28;20037;-73
2022/05/10 08:40:54;;;;;;;18.70;10.43;;;;;;;21.06;52.46;101630.44;5043700;28;20102;-73
2022/05/10 08:43:28;;;;;;;15.75;9.77;;;;;;;21.11;51.80;101626.81;5044589;28;20029;-72
2022/05/10 08:45:55;;;;;;;15.65;10.10;;;;;;;21.16;51.48;101622.03;5042224;28;20037;-73
2022/05/10 08:48:24;;;;;;;16.55;9.63;;;;;;;21.25;51.94;101617.56;5043024;28;20033;-72
2022/05/10 08:50:49;;;;;;;15.70;9.35;;;;;;;21.42;50.95;101610.81;5042573;28;20120;-73
2022/05/10 08:53:19;;;;;;;19.48;10.05;;;;;;;21.58;51.74;101620.81;5043642;28;20033;-72
2022/05/10 08:55:54;;;;;;;15.07;9.70;;;;;;;21.65;49.41;101626.13;5034127;28;20104;-73
2022/05/10 08:58:38;;;;;;;13.27;9.30;;;;;;;21.73;51.23;101615.16;5043892;28;20116;-72
2022/05/10 09:01:09;;;;;;;12.93;8.82;;;;;;;22.00;49.47;101611.13;5039891;28;20125;-72
2022/05/10 09:03:53;;;;;;;15.20;9.43;;;;;;;22.22;48.39;101613.50;5024896;28;20120;-73
2022/05/10 09:06:45;;;;;;;16.50;8.68;;;;;;;22.41;47.95;101610.88;5026965;28;20066;-73
2022/05/10 09:09:26;;;;;;;21.80;9.90;;;;;;;22.52;47.35;101615.25;5044491;28;20017;-74
2022/05/10 09:12:14;;;;;;;15.70;8.95;;;;;;;22.57;48.23;101611.56;5044281;28;20477;-72
2022/05/10 09:14:54;;;;;;;12.23;8.93;;;;;;;22.61;46.70;101607.91;5044703;28;20043;-69
2022/05/10 09:17:20;;;;;;;14.95;8.98;;;;;;;22.69;45.53;101606.41;5044158;28;20029;-72
2022/05/10 09:19:46;;;;;;;15.45;9.18;;;;;;;23.02;45.44;101597.16;5044604;28;20114;-72
2022/05/10 09:22:31;;;;;;;13.18;8.70;;;;;;;23.79;44.69;101596.25;5043592;28;20036;-72
2022/05/10 09:24:58;;;;;;;17.35;8.38;;;;;;;24.27;42.38;101588.50;5044950;28;20060;-73
2022/05/10 09:27:28;;;;;;;;;;;;;;;24.40;43.88;101600.16;5044378;28;20423;-74
2022/05/10 09:29:54;;;;;;;14.77;8.60;;;;;;;24.14;44.03;101588.47;5040640;28;19965;-73
2022/05/10 09:35:22;;;;;;;18.08;9.20;;;;;;;23.75;43.89;101586.78;5044335;28;20339;-73
2022/05/10 09:37:47;;;;;;;14.85;9.65;;;;;;;23.49;43.36;101591.84;5043131;28;20078;-73
2022/05/10 09:40:32;;;;;;;15.07;9.97;;;;;;;23.44;44.29;101589.13;5042780;28;20340;-72
2022/05/10 09:43:18;;;;;;;16.20;9.68;;;;;;;23.63;44.43;101581.63;5043529;28;20056;-73
2022/05/10 09:45:45;;;;;;;17.27;9.88;;;;;;;23.70;43.23;101584.88;5043707;28;20087;-73
2022/05/10 09:48:18;;;;;;;13.40;9.40;;;;;;;23.80;43.23;101581.94;5038994;28;20026;-73
2022/05/10 09:50:52;;;;;;;14.70;10.25;;;;;;;23.78;43.61;101578.59;5024849;28;20045;-74
2022/05/10 09:53:27;;;;;;;14.95;9.48;;;;;;;23.80;44.11;101584.72;5043682;28;20491;-73
2022/05/10 09:56:04;;;;;;;14.57;9.90;;;;;;;23.90;43.65;101568.91;5042955;28;20151;-73
2022/05/10 09:58:34;;;;;;;14.20;9.98;;;;;;;24.77;41.79;101571.13;5044085;28;20033;-72
2022/05/10 10:01:03;;;;;;;13.73;10.27;;;;;;;25.34;39.99;101583.84;5042079;28;20574;-73
2022/05/10 10:03:37;;;;;;;15.05;10.25;;;;;;;25.63;40.24;101566.59;5044115;28;20064;-73
2022/05/10 10:06:19;;;;;;;15.48;9.65;;;;;;;26.34;40.53;101568.91;5043268;28;20029;-72
2022/05/10 10:08:51;;;;;;;13.60;9.52;;;;;;;27.80;36.47;101564.34;5028436;28;20040;-73
2022/05/10 10:11:20;;;;;;;13.98;8.90;;;;;;;28.53;34.80;101568.19;5031113;28;20070;-73
2022/05/10 10:13:48;;;;;;;14.43;8.90;;;;;;;29.22;34.36;101564.34;5044107;28;20052;-73
2022/05/10 10:16:35;;;;;;;15.38;9.82;;;;;;;29.56;32.82;101562.53;5042530;28;20159;-72
2022/05/10 10:19:18;;;;;;;17.35;9.05;;;;;;;30.57;32.49;101557.53;5043234;28;20029;-72
2022/05/10 10:21:49;;;;;;;16.58;9.55;;;;;;;31.20;30.56;101563.00;5041704;28;20021;-72
2022/05/10 10:24:24;;;;;;;15.10;8.70;;;;;;;31.11;30.80;101553.75;5026730;28;20377;-73
2022/05/10 10:26:53;;;;;;;12.65;8.57;;;;;;;30.76;29.71;101548.50;5036060;28;20317;-72
2022/05/10 10:29:31;;;;;;;14.48;8.25;;;;;;;29.96;31.78;101552.41;5040258;28;20020;-72
2022/05/10 10:32:00;;;;;;;;;;;;;;;30.20;31.74;101540.38;5042808;28;20416;-72
2022/05/10 10:34:35;;;;;;;13.02;8.18;;;;;;;30.14;32.08;101532.44;5043788;28;19921;-72
2022/05/10 10:37:09;;;;;;;12.82;8.45;;;;;;;30.02;32.04;101540.88;5041898;28;20507;-72
2022/05/10 10:39:49;;;;;;;11.18;6.88;;;;;;;29.34;31.30;101552.28;5024378;28;20040;-73
2022/05/10 10:42:24;;;;;;;13.07;6.95;;;;;;;28.51;32.00;101541.44;5023357;28;20036;-72
2022/05/10 10:44:56;;;;;;;13.75;6.88;;;;;;;28.63;32.18;101541.56;5022718;28;20490;-71
2022/05/10 10:47:30;;;;;;;14.70;6.97;;;;;;;28.45;33.28;101546.44;5037970;28;20467;-72
2022/05/10 10:50:22;;;;;;;13.60;7.78;;;;;;;27.77;33.23;101548.06;5042036;28;20372;-71
2022/05/10 10:52:47;;;;;;;12.80;7.25;;;;;;;26.99;33.90;101540.16;5043098;28;20037;-72
2022/05/10 10:55:18;;;;;;;16.17;7.70;;;;;;;26.48;35.42;101543.53;5042387;28;20029;-72
2022/05/10 10:58:11;;;;;;;12.35;7.75;;;;;;;26.96;35.36;101531.50;5034614;28;20297;-72
2022/05/10 11:00:42;;;;;;;13.75;8.05;;;;;;;26.81;35.16;101527.97;5042411;28;20589;-72
2022/05/10 11:03:32;;;;;;;13.73;7.80;;;;;;;26.83;35.69;101538.94;5043956;28;20094;-72
2022/05/10 11:06:26;;;;;;;11.50;7.75;;;;;;;26.58;36.45;101534.81;5039666;28;20480;-72
2022/05/10 11:09:32;;;;;;;13.07;8.82;;;;;;;26.35;37.31;101522.69;5042312;28;20383;-72
2022/05/10 11:12:09;;;;;;;10.82;7.45;;;;;;;26.12;37.62;101527.50;5042140;28;20492;-72
2022/05/10 11:14:59;;;;;;;13.85;8.30;;;;;;;25.99;38.18;101519.94;5035656;28;20036;-72
2022/05/10 11:17:44;;;;;;;13.65;7.95;;;;;;;26.17;37.77;101509.66;5042395;28;20073;-71
2022/05/10 11:20:45;;;;;;;13.77;8.55;;;;;;;26.58;37.27;101510.28;5042486;28;20053;-72
2022/05/10 11:23:23;;;;;;;12.68;8.20;;;;;;;27.16;36.36;101502.75;5040679;28;20021;-72
2022/05/10 11:26:26;;;;;;;14.82;8.60;;;;;;;26.96;36.46;101506.16;5038889;28;20029;-72
2022/05/10 11:29:14;;;;;;;13.27;9.20;;;;;;;26.70;35.96;101501.22;5041178;28;20033;-73
2022/05/10 11:32:06;;;;;;;14.27;9.32;;;;;;;26.49;37.72;101497.31;5038965;28;20490;-70
2022/05/10 11:34:59;;;;;;;13.60;9.45;;;;;;;26.15;37.10;101501.53;5033413;28;20604;-72
2022/05/10 11:37:31;;;;;;;15.45;8.95;;;;;;;26.00;38.41;101496.28;5024901;28;20032;-72